Time;durP1;ratioP1;P1;durP2;ratioP2;P2;SDS_P1;SDS_P2;PMS_P1;PMS_P2;Temp;Humidity;BMP_temperature;BMP_pressure;BME280_temperature;BME280_humidity;BME280_pressure;Samples;Min_cycle;Max_cycle;Signal;HPM_P1;HPM_P2
2022/02/06 00:07:12;;;;;;;1999.90;999.90;;;;;;;6.44;66.29;100622.22;15672380;28;20115;-65
2022/02/06 00:14:45;;;;;;;1999.90;999.90;;;;;;;6.59;65.31;100597.81;15629816;28;20048;-63
2022/02/06 00:22:29;;;;;;;1999.90;999.90;;;;;;;6.68;64.36;100594.31;15614542;28;20571;-62
2022/02/06 00:30:12;;;;;;;1999.90;999.90;;;;;;;6.90;63.17;100577.75;15618880;28;20049;-62
2022/02/06 00:45:37;;;;;;;1999.90;999.90;;;;;;;6.89;62.77;100545.59;15609572;28;20064;-62
2022/02/06 00:53:16;;;;;;;1999.90;999.90;;;;;;;7.06;61.88;100537.41;15616201;28;20238;-62
2022/02/06 01:00:50;;;;;;;1999.90;999.90;;;;;;;7.21;61.25;100523.16;15618803;28;20048;-59
2022/02/06 01:08:22;;;;;;;1999.90;999.90;;;;;;;7.22;60.55;100510.09;15620839;28;20124;-61
2022/02/06 01:15:59;;;;;;;1999.90;999.90;;;;;;;7.28;60.58;100480.25;15625302;28;20050;-60
2022/02/06 01:23:40;;;;;;;1999.90;999.90;;;;;;;7.46;60.29;100477.28;15624286;28;20056;-63
2022/02/06 01:31:28;;;;;;;1999.90;999.90;;;;;;;7.20;61.13;100463.25;15622785;28;20052;-61
2022/02/06 01:39:09;;;;;;;1999.90;999.90;;;;;;;7.00;61.85;100444.34;15623961;28;20045;-63
2022/02/06 01:46:55;;;;;;;1999.90;999.90;;;;;;;7.23;61.04;100426.53;15623487;28;20045;-60
2022/02/06 02:02:41;;;;;;;1999.90;999.90;;;;;;;6.85;64.87;100400.31;15622323;28;20552;-63
2022/02/06 02:18:52;;;;;;;1999.90;999.90;;;;;;;6.55;66.40;100377.75;15597066;28;20069;-62
2022/02/06 02:26:49;;;;;;;1999.90;999.90;;;;;;;6.83;66.53;100352.69;15621189;28;20042;-62
2022/02/06 02:50:14;;;;;;;1999.90;999.90;;;;;;;6.83;67.65;100316.63;15609952;28;20064;-61
2022/02/06 02:57:54;;;;;;;1999.90;999.90;;;;;;;6.65;69.88;100310.16;15617196;28;20038;-62
2022/02/06 03:05:27;;;;;;;1999.90;999.90;;;;;;;6.62;70.04;100289.44;15617668;28;20064;-62
2022/02/06 03:13:03;;;;;;;1999.90;999.90;;;;;;;6.65;70.75;100277.69;15617787;28;20046;-62
2022/02/06 03:20:35;;;;;;;1999.90;999.90;;;;;;;6.39;71.87;100250.97;15615772;28;20049;-64
2022/02/06 03:28:09;;;;;;;1999.90;999.90;;;;;;;6.55;72.29;100224.47;15615846;28;20461;-62
2022/02/06 03:35:42;;;;;;;1999.90;999.90;;;;;;;6.24;73.95;100203.09;15615937;28;20571;-61
2022/02/06 03:43:18;;;;;;;1999.90;999.90;;;;;;;6.32;73.69;100209.84;15614895;28;20049;-61
2022/02/06 03:50:54;;;;;;;1999.90;999.90;;;;;;;6.30;74.73;100195.50;15617358;28;20107;-61
2022/02/06 03:58:28;;;;;;;1999.90;999.90;;;;;;;6.32;75.14;100168.28;15614427;28;20049;-61
2022/02/06 04:06:00;;;;;;;1999.90;999.90;;;;;;;6.12;76.08;100139.16;15607234;28;20041;-61
2022/02/06 04:13:39;;;;;;;1999.90;999.90;;;;;;;6.30;76.70;100157.53;15614057;28;20034;-61
2022/02/06 04:21:11;;;;;;;1999.90;999.90;;;;;;;6.32;76.69;100137.81;15613767;28;20045;-61
2022/02/06 04:28:44;;;;;;;1999.90;999.90;;;;;;;6.39;76.37;100093.00;15621475;28;20099;-61
2022/02/06 04:36:16;;;;;;;1999.90;999.90;;;;;;;6.49;76.60;100107.41;15626489;28;20172;-59
2022/02/06 04:44:14;;;;;;;1999.90;999.90;;;;;;;6.27;76.72;100075.03;15626613;28;20045;-59
2022/02/06 04:52:17;;;;;;;1999.90;999.90;;;;;;;6.39;77.04;100066.13;15625354;28;20042;-61
2022/02/06 05:15:55;;;;;;;1999.90;999.90;;;;;;;6.81;77.27;100056.28;15624014;28;20042;-63
2022/02/06 05:23:43;;;;;;;1999.90;999.90;;;;;;;6.50;77.67;100014.78;15625225;28;20041;-62
2022/02/06 05:31:29;;;;;;;1999.90;999.90;;;;;;;6.62;77.36;100009.44;15623210;28;20124;-62
2022/02/06 05:39:01;;;;;;;1999.90;999.90;;;;;;;6.68;77.75;100004.56;15623661;28;20093;-62
2022/02/06 05:46:35;;;;;;;1999.90;999.90;;;;;;;6.77;77.69;100002.59;15623235;28;20473;-63
2022/02/06 05:54:07;;;;;;;1999.90;999.90;;;;;;;6.61;78.39;99976.50;15605406;28;20050;-59
2022/02/06 06:01:41;;;;;;;1999.90;999.90;;;;;;;6.87;77.32;99982.03;15604879;28;20069;-60
2022/02/06 06:09:13;;;;;;;1999.90;999.90;;;;;;;6.66;78.27;99976.31;15602692;22;20096;-63
2022/02/06 06:16:48;;;;;;;1999.90;999.90;;;;;;;6.63;78.96;99966.72;15567032;28;20052;-63
2022/02/06 06:24:22;;;;;;;1999.90;999.90;;;;;;;6.51;79.26;99944.38;15613803;28;20414;-63
2022/02/06 06:31:55;;;;;;;1999.90;999.90;;;;;;;6.66;78.86;99951.38;15565410;28;20046;-64
2022/02/06 06:39:36;;;;;;;1999.90;999.90;;;;;;;6.73;79.00;99932.31;15551117;28;20069;-62
2022/02/06 06:47:11;;;;;;;1999.90;999.90;;;;;;;6.70;79.84;99921.06;15568679;28;20064;-63
2022/02/06 06:54:47;;;;;;;1999.90;999.90;;;;;;;6.73;79.58;99909.31;15533871;28;20046;-62
2022/02/06 07:02:28;;;;;;;1999.90;999.90;;;;;;;7.12;78.72;99916.63;15549850;28;20052;-63
2022/02/06 07:10:02;;;;;;;1999.90;999.90;;;;;;;6.88;78.93;99912.41;15550088;28;20124;-63
2022/02/06 07:17:35;;;;;;;1999.90;999.90;;;;;;;6.95;78.92;99892.47;15531811;28;20057;-64
2022/02/06 07:25:08;;;;;;;;;;;;;;;7.23;78.05;99892.91;15515537;28;20434;-62
2022/02/06 07:32:41;;;;;;;1999.90;999.90;;;;;;;7.12;77.75;99884.13;15515718;28;19983;-63
2022/02/06 07:40:14;;;;;;;1999.90;999.90;;;;;;;7.28;78.18;99878.84;15531565;28;20141;-63
2022/02/06 07:47:48;;;;;;;1999.90;999.90;;;;;;;7.22;77.77;99861.59;15530689;28;20046;-63
2022/02/06 07:55:20;;;;;;;1999.90;999.90;;;;;;;7.41;76.74;99852.88;15582390;28;20057;-62
2022/02/06 08:02:57;;;;;;;1999.90;999.90;;;;;;;7.48;76.88;99849.56;15608154;28;20053;-62
2022/02/06 08:10:29;;;;;;;1999.90;999.90;;;;;;;7.69;76.02;99836.56;15590461;28;20049;-63
2022/02/06 08:18:03;;;;;;;1999.90;999.90;;;;;;;7.70;76.16;99838.19;15590787;28;20109;-63
2022/02/06 08:25:35;;;;;;;1999.90;999.90;;;;;;;7.58;76.40;99815.88;15610134;28;20324;-62
2022/02/06 08:33:08;;;;;;;1999.90;999.90;;;;;;;8.10;75.49;99804.44;15590083;28;20565;-61
2022/02/06 08:40:41;;;;;;;1999.90;999.90;;;;;;;8.13;74.30;99802.94;15607327;28;20072;-62
2022/02/06 08:48:14;;;;;;;1999.90;999.90;;;;;;;8.26;73.33;99782.41;15573112;28;20103;-62
2022/02/06 08:55:48;;;;;;;1999.90;999.90;;;;;;;8.26;73.10;99776.84;15534720;28;20050;-62
2022/02/06 09:03:23;;;;;;;1999.90;999.90;;;;;;;8.16;73.82;99766.97;15527290;28;20049;-63
2022/02/06 09:10:55;;;;;;;1999.90;999.90;;;;;;;8.27;74.39;99770.94;15527800;28;20050;-64
2022/02/06 09:18:28;;;;;;;1999.90;999.90;;;;;;;8.17;75.14;99763.03;15536245;28;20058;-62
2022/02/06 09:26:01;;;;;;;1999.90;999.90;;;;;;;8.38;74.46;99758.28;15537632;28;20160;-63
2022/02/06 09:41:05;;;;;;;1999.90;999.90;;;;;;;8.41;75.13;99745.66;15554896;28;20038;-63
2022/02/06 09:48:39;;;;;;;1999.90;999.90;;;;;;;8.62;75.07;99718.63;15595674;28;20037;-63
2022/02/06 09:56:12;;;;;;;1999.90;999.90;;;;;;;9.64;72.13;99714.00;15598779;28;20501;-61
2022/02/06 10:04:18;;;;;;;1999.90;999.90;;;;;;;9.33;72.28;99697.13;15578579;28;20339;-65
2022/02/06 10:21:53;;;;;;;1999.90;999.90;;;;;;;11.24;64.81;99661.81;15558359;28;20129;-64
2022/02/06 10:29:38;;;;;;;1999.90;999.90;;;;;;;10.54;66.21;99645.75;15536510;28;20583;-62
2022/02/06 10:37:14;;;;;;;1999.90;999.90;;;;;;;10.31;66.98;99620.41;15538657;28;20062;-62
2022/02/06 10:44:46;;;;;;;1999.90;999.90;;;;;;;10.65;65.96;99593.00;15536075;28;20042;-64
2022/02/06 10:52:27;;;;;;;1999.90;999.90;;;;;;;10.39;66.30;99583.19;15534945;28;20049;-62
2022/02/06 11:00:00;;;;;;;1999.90;999.90;;;;;;;10.08;66.75;99571.97;15556103;28;20042;-63
2022/02/06 11:07:34;;;;;;;1999.90;999.90;;;;;;;10.24;66.26;99552.53;15510494;28;20061;-63
2022/02/06 11:15:23;;;;;;;1999.90;999.90;;;;;;;9.94;66.15;99535.38;15539364;28;20050;-62
2022/02/06 11:23:02;;;;;;;1999.90;999.90;;;;;;;10.12;65.34;99506.00;15585613;28;20494;-64
2022/02/06 11:30:34;;;;;;;1999.90;999.90;;;;;;;9.93;66.05;99501.13;15568693;28;20056;-62
2022/02/06 11:46:07;;;;;;;1999.90;999.90;;;;;;;9.94;64.83;99458.16;15547904;28;20136;-64
2022/02/06 11:53:40;;;;;;;1999.90;999.90;;;;;;;9.77;65.91;99434.25;15577331;28;20410;-64
2022/02/06 12:01:27;;;;;;;1999.90;999.90;;;;;;;10.30;65.31;99408.88;15610162;28;20313;-65
2022/02/06 12:09:16;;;;;;;1999.90;999.90;;;;;;;10.19;65.20;99410.59;15613428;22;20076;-61
2022/02/06 12:17:08;;;;;;;1999.90;999.90;;;;;;;10.08;66.43;99380.47;15561330;28;20440;-61
2022/02/06 12:24:42;;;;;;;1999.90;999.90;;;;;;;9.65;67.76;99353.56;15620903;28;20057;-62
2022/02/06 12:32:29;;;;;;;1999.90;999.90;;;;;;;9.73;67.96;99332.28;15606944;28;20049;-61
2022/02/06 12:40:06;;;;;;;1999.90;999.90;;;;;;;9.65;67.72;99314.56;15622714;28;20064;-62
2022/02/06 12:47:42;;;;;;;1999.90;999.90;;;;;;;9.65;66.42;99277.56;15617593;28;20099;-61
2022/02/06 12:55:16;;;;;;;1999.90;999.90;;;;;;;9.77;66.54;99253.19;15630273;28;20076;-61
2022/02/06 13:02:49;;;;;;;1999.90;999.90;;;;;;;9.96;65.12;99240.47;15637096;28;20044;-61
2022/02/06 13:10:22;;;;;;;1999.90;999.90;;;;;;;9.66;65.53;99181.69;15583231;28;20050;-58
2022/02/06 13:25:54;;;;;;;1999.90;999.90;;;;;;;9.69;65.00;99137.22;15616913;28;20057;-60
2022/02/06 13:33:39;;;;;;;1999.90;999.90;;;;;;;9.64;65.50;99129.16;15590970;28;20072;-62
2022/02/06 13:41:18;;;;;;;1999.90;999.90;;;;;;;9.58;66.42;99094.41;15588783;28;20052;-59
2022/02/06 13:48:51;;;;;;;1999.90;999.90;;;;;;;9.48;67.01;99062.41;15547505;28;20073;-61
2022/02/06 13:56:25;;;;;;;1999.90;999.90;;;;;;;9.31;68.05;99037.78;15586445;28;20045;-58
2022/02/06 14:03:57;;;;;;;1999.90;999.90;;;;;;;9.06;68.80;99019.72;15622784;28;20051;-59
2022/02/06 14:11:32;;;;;;;1999.90;999.90;;;;;;;8.72;71.13;98993.53;15608316;28;20049;-61
2022/02/06 14:19:10;;;;;;;1999.90;999.90;;;;;;;8.72;73.50;98991.53;15581656;28;20103;-59
2022/02/06 14:27:03;;;;;;;1999.90;999.90;;;;;;;8.54;75.12;98973.63;15616242;28;20109;-59
2022/02/06 14:34:37;;;;;;;1999.90;999.90;;;;;;;8.30;76.50;98938.50;15565370;28;20122;-59
2022/02/06 14:42:17;;;;;;;1999.90;999.90;;;;;;;8.11;76.93;98926.16;15557370;28;20073;-58
2022/02/06 14:49:50;;;;;;;1999.90;999.90;;;;;;;8.10;77.71;98902.31;15553016;28;20042;-59
2022/02/06 14:57:23;;;;;;;1999.90;999.90;;;;;;;7.97;77.86;98877.81;15553308;28;20494;-60
2022/02/06 15:04:57;;;;;;;1999.90;999.90;;;;;;;8.09;79.05;98872.13;15551503;28;20069;-61
2022/02/06 15:12:30;;;;;;;1999.90;999.90;;;;;;;7.95;79.68;98828.19;15551292;28;20081;-59
2022/02/06 15:20:02;;;;;;;;;;;;;;;8.00;79.89;98824.31;15533781;28;20096;-60
2022/02/06 15:27:36;;;;;;;1999.90;999.90;;;;;;;7.93;80.89;98822.19;15532915;28;19931;-61
2022/02/06 15:35:08;;;;;;;1999.90;999.90;;;;;;;7.62;81.44;98817.47;15532843;28;20050;-60
2022/02/06 15:42:42;;;;;;;1999.90;999.90;;;;;;;7.88;81.16;98807.75;15548976;28;20116;-58
2022/02/06 15:50:14;;;;;;;1999.90;999.90;;;;;;;7.77;81.76;98782.53;15529440;28;20256;-58
2022/02/06 15:57:48;;;;;;;1999.90;999.90;;;;;;;7.60;82.04;98764.28;15573052;28;20038;-62
2022/02/06 16:05:20;;;;;;;;;;;;;;;7.90;81.23;98763.78;15550696;28;20089;-59
2022/02/06 16:12:53;;;;;;;1999.90;999.90;;;;;;;7.58;82.35;98751.94;15570006;28;19921;-59
2022/02/06 16:20:25;;;;;;;1999.90;999.90;;;;;;;7.50;82.24;98759.28;15592022;28;20042;-60
2022/02/06 16:27:59;;;;;;;1999.90;999.90;;;;;;;7.43;82.12;98737.72;15586121;28;20470;-60
2022/02/06 16:35:31;;;;;;;1999.90;999.90;;;;;;;7.59;81.20;98726.59;15549652;28;20557;-60
2022/02/06 16:43:04;;;;;;;1999.90;999.90;;;;;;;7.61;81.33;98740.09;15567211;28;20050;-59
2022/02/06 16:50:36;;;;;;;1999.90;999.90;;;;;;;7.49;81.55;98764.03;15567339;28;20133;-60
2022/02/06 16:58:10;;;;;;;1999.90;999.90;;;;;;;7.26;82.62;98793.56;15532691;28;20058;-60
2022/02/06 17:05:42;;;;;;;1999.90;999.90;;;;;;;7.29;82.20;98803.13;15604829;28;20056;-60
2022/02/06 17:13:19;;;;;;;;;;;;;;;7.42;81.91;98811.03;15626944;28;20285;-58
2022/02/06 17:20:51;;;;;;;1999.90;999.90;;;;;;;7.39;81.40;98811.72;15625723;28;19921;-57
2022/02/06 17:28:26;;;;;;;1999.90;999.90;;;;;;;7.76;80.58;98819.78;15624672;28;20045;-60
2022/02/06 17:35:59;;;;;;;1999.90;999.90;;;;;;;7.38;81.24;98837.06;15624158;28;20107;-62
2022/02/06 17:43:33;;;;;;;1999.90;999.90;;;;;;;7.13;80.84;98867.75;15596443;28;20552;-60
2022/02/06 17:51:07;;;;;;;1999.90;999.90;;;;;;;6.78;81.00;98892.50;15541484;28;20350;-59
2022/02/06 17:58:41;;;;;;;1999.90;999.90;;;;;;;6.90;79.50;98894.44;15582443;28;20057;-61
2022/02/06 18:06:14;;;;;;;1999.90;999.90;;;;;;;6.93;79.51;98913.94;15596529;28;20075;-59
2022/02/06 18:13:48;;;;;;;;;;;;;;;6.70;80.35;98926.72;15660436;23;20434;-59
2022/02/06 18:21:20;;;;;;;1999.90;999.90;;;;;;;6.90;79.37;98950.69;15678926;28;19972;-57
2022/02/06 18:28:53;;;;;;;1999.90;999.90;;;;;;;6.67;79.65;98957.91;15664093;28;20498;-55
2022/02/06 18:36:25;;;;;;;;;;;;;;;6.87;78.64;98962.44;15676296;28;20049;-53
2022/02/06 18:43:59;;;;;;;1999.90;999.90;;;;;;;6.65;79.19;98987.91;15674949;28;19927;-60
2022/02/06 18:51:31;;;;;;;1999.90;999.90;;;;;;;6.64;78.68;98989.88;15675560;28;20127;-52
2022/02/06 18:59:05;;;;;;;1999.90;999.90;;;;;;;6.59;78.80;98997.63;15673030;28;20048;-52
2022/02/06 19:06:37;;;;;;;1999.90;999.90;;;;;;;6.50;79.31;99003.28;15614515;28;20124;-54
2022/02/06 19:14:15;;;;;;;1999.90;999.90;;;;;;;6.66;78.77;98990.34;15613369;28;20037;-52
2022/02/06 19:21:52;;;;;;;1999.90;999.90;;;;;;;6.90;77.72;99011.69;15611134;28;20115;-57
2022/02/06 19:29:42;;;;;;;1999.90;999.90;;;;;;;6.62;78.91;99008.81;15609243;28;20045;-57
2022/02/06 19:37:15;;;;;;;1999.90;999.90;;;;;;;6.77;78.36;99018.38;15592715;28;20041;-58
2022/02/06 19:44:50;;;;;;;1999.90;999.90;;;;;;;7.13;77.06;99011.16;15610896;28;20042;-59
2022/02/06 19:52:23;;;;;;;1999.90;999.90;;;;;;;7.09;77.36;99015.81;15608382;28;20434;-59
2022/02/06 19:59:57;;;;;;;1999.90;999.90;;;;;;;7.13;77.16;98991.75;15629940;28;20075;-54
2022/02/06 20:07:29;;;;;;;1999.90;999.90;;;;;;;7.27;76.95;98989.38;15657091;28;20412;-58
2022/02/06 20:15:04;;;;;;;1999.90;999.90;;;;;;;7.43;76.26;98964.47;15630819;28;20624;-55
2022/02/06 20:22:36;;;;;;;1999.90;999.90;;;;;;;6.79;77.39;98960.66;15607435;28;20429;-57
2022/02/06 20:30:12;;;;;;;1999.90;999.90;;;;;;;7.00;77.72;98981.84;15631379;28;20041;-56
2022/02/06 20:37:45;;;;;;;1999.90;999.90;;;;;;;7.00;77.50;98948.56;15670537;28;20049;-57
2022/02/06 20:45:18;;;;;;;1999.90;999.90;;;;;;;7.15;77.50;98948.63;15668664;28;20041;-58
2022/02/06 20:52:58;;;;;;;1999.90;999.90;;;;;;;7.21;76.73;98950.00;15653630;28;20068;-60
2022/02/06 21:00:32;;;;;;;1999.90;999.90;;;;;;;7.10;77.15;98959.16;15668953;28;20094;-53
2022/02/06 21:08:06;;;;;;;1999.90;999.90;;;;;;;6.73;79.15;98950.13;15617207;28;20120;-54
2022/02/06 21:15:40;;;;;;;1999.90;999.90;;;;;;;6.48;78.12;98943.84;15619741;28;20482;-54
2022/02/06 21:23:12;;;;;;;1999.90;999.90;;;;;;;6.47;78.30;98945.00;15601388;28;20049;-54
2022/02/06 21:30:47;;;;;;;1999.90;999.90;;;;;;;6.82;77.65;98935.00;15617616;28;20125;-54
2022/02/06 21:38:36;;;;;;;1999.90;999.90;;;;;;;6.47;78.40;98925.63;15603796;28;20529;-56
2022/02/06 21:46:16;;;;;;;1999.90;999.90;;;;;;;6.57;78.46;98942.56;15617478;28;20041;-54
2022/02/06 21:53:48;;;;;;;1999.90;999.90;;;;;;;6.79;77.67;98924.63;15578686;28;20494;-63
2022/02/06 22:01:22;;;;;;;1999.90;999.90;;;;;;;6.86;77.37;98940.63;15652666;28;20045;-55
2022/02/06 22:08:58;;;;;;;1999.90;999.90;;;;;;;6.34;78.66;98947.78;15654722;28;20506;-55
2022/02/06 22:24:29;;;;;;;1999.90;999.90;;;;;;;6.15;78.67;98966.13;15597665;28;20049;-59
2022/02/06 22:32:03;;;;;;;1999.90;999.90;;;;;;;6.20;78.57;98971.44;15634792;28;20049;-61
2022/02/06 22:39:35;;;;;;;1999.90;999.90;;;;;;;6.17;77.31;98972.97;15684700;28;20498;-58
2022/02/06 22:47:09;;;;;;;1999.90;999.90;;;;;;;6.10;77.31;98966.38;15674791;28;20037;-59
2022/02/06 22:54:41;;;;;;;1999.90;999.90;;;;;;;6.12;77.52;98969.59;15676020;28;20051;-61
2022/02/06 23:02:14;;;;;;;1999.90;999.90;;;;;;;6.33;77.75;98992.44;15657462;28;20102;-55
2022/02/06 23:09:51;;;;;;;1999.90;999.90;;;;;;;5.99;78.93;98993.69;15623749;28;20136;-56
2022/02/06 23:17:25;;;;;;;1999.90;999.90;;;;;;;6.33;77.05;98993.25;15612216;28;20568;-59
2022/02/06 23:24:58;;;;;;;1999.90;999.90;;;;;;;5.97;77.86;99012.63;15593634;28;20141;-56
2022/02/06 23:32:32;;;;;;;1999.90;999.90;;;;;;;5.92;78.09;99019.16;15599418;28;20053;-59
2022/02/06 23:40:08;;;;;;;1999.90;999.90;;;;;;;6.17;77.31;99019.22;15605226;28;20430;-56
2022/02/06 23:47:44;;;;;;;1999.90;999.90;;;;;;;5.86;77.80;99023.28;15610311;28;20067;-53
2022/02/06 23:55:21;;;;;;;1999.90;999.90;;;;;;;6.21;76.07;99017.38;15611789;28;20456;-52
